Time;durP1;ratioP1;P1;durP2;ratioP2;P2;SDS_P1;SDS_P2;PMS_P1;PMS_P2;Temp;Humidity;BMP_temperature;BMP_pressure;BME280_temperature;BME280_humidity;BME280_pressure;Samples;Min_cycle;Max_cycle;Signal;HPM_P1;HPM_P2
2022/08/15 00:00:20;;;;;;;31.98;19.65;;;;;;;24.58;61.29;100274.09;4931254;29;20039;-74
2022/08/15 00:02:47;;;;;;;29.83;18.45;;;;;;;24.55;61.56;100277.41;4932380;29;20372;-76
2022/08/15 00:05:18;;;;;;;30.00;18.52;;;;;;;24.48;61.54;100274.97;4946031;29;20023;-75
2022/08/15 00:07:44;;;;;;;30.17;18.58;;;;;;;24.44;61.97;100273.94;4933399;29;20043;-74
2022/08/15 00:10:10;;;;;;;35.00;18.48;;;;;;;24.38;62.54;100280.56;4912058;29;20086;-75
2022/08/15 00:12:38;;;;;;;34.95;18.48;;;;;;;24.22;62.82;100285.34;4932549;29;20032;-75
2022/08/15 00:15:07;;;;;;;37.47;21.67;;;;;;;23.97;64.00;100291.84;4934775;29;20034;-76
2022/08/15 00:17:34;;;;;;;33.00;20.08;;;;;;;23.96;63.73;100281.13;4917167;29;20220;-75
2022/08/15 00:20:00;;;;;;;37.00;20.60;;;;;;;23.85;64.29;100294.94;4951539;29;20027;-75
2022/08/15 00:22:25;;;;;;;33.92;21.08;;;;;;;23.71;64.67;100282.91;4952152;29;20106;-75
2022/08/15 00:24:50;;;;;;;32.55;18.92;;;;;;;23.76;65.02;100280.16;4952232;29;20114;-74
2022/08/15 00:27:16;;;;;;;32.58;19.60;;;;;;;23.69;65.24;100289.78;4953632;29;20087;-75
2022/08/15 00:29:42;;;;;;;34.83;19.67;;;;;;;23.71;65.21;100271.09;4938764;29;20031;-75
2022/08/15 00:32:13;;;;;;;38.83;19.30;;;;;;;23.78;65.03;100280.69;4914976;29;20071;-75
2022/08/15 00:34:38;;;;;;;33.38;19.25;;;;;;;23.80;64.85;100281.25;4931916;29;20183;-75
2022/08/15 00:37:05;;;;;;;34.50;18.73;;;;;;;23.84;64.92;100276.00;4929908;29;20114;-76
2022/08/15 00:39:31;;;;;;;32.63;18.85;;;;;;;23.88;64.54;100272.41;4914079;29;20028;-74
2022/08/15 00:42:00;;;;;;;40.47;18.95;;;;;;;23.92;64.75;100275.38;4931239;29;20040;-75
2022/08/15 00:44:43;;;;;;;31.98;19.17;;;;;;;23.90;64.71;100271.28;4921947;29;20036;-75
2022/08/15 00:47:13;;;;;;;28.50;18.73;;;;;;;23.82;64.70;100267.22;4932556;29;20039;-74
2022/08/15 00:49:39;;;;;;;35.83;20.08;;;;;;;23.75;65.05;100256.56;4916588;29;20070;-75
2022/08/15 00:52:08;;;;;;;28.27;18.30;;;;;;;23.78;65.17;100255.97;4936270;29;20035;-77
2022/08/15 00:54:41;;;;;;;30.20;18.80;;;;;;;23.77;64.77;100259.81;4934608;29;20058;-75
2022/08/15 00:57:11;;;;;;;28.95;17.80;;;;;;;23.71;65.42;100269.16;4933908;29;20031;-75
2022/08/15 00:59:45;;;;;;;33.13;18.25;;;;;;;23.66;65.73;100263.69;4918665;29;20043;-74
2022/08/15 01:02:15;;;;;;;27.67;18.38;;;;;;;23.59;66.15;100254.94;4934282;29;20028;-75
2022/08/15 01:04:40;;;;;;;27.35;17.98;;;;;;;23.57;66.29;100262.66;4934995;29;20042;-75
2022/08/15 01:07:06;;;;;;;36.10;18.27;;;;;;;23.57;66.09;100268.16;4934929;29;20044;-75
2022/08/15 01:09:32;;;;;;;40.33;19.10;;;;;;;23.53;66.23;100267.88;4935323;29;20110;-75
2022/08/15 01:12:05;;;;;;;30.30;19.20;;;;;;;23.51;66.59;100263.78;4935325;29;20134;-76
2022/08/15 01:14:32;;;;;;;30.58;18.27;;;;;;;23.52;66.51;100265.44;4934717;29;20091;-75
2022/08/15 01:16:58;;;;;;;32.10;19.35;;;;;;;23.57;65.63;100265.41;4916934;29;20109;-75
2022/08/15 01:19:30;;;;;;;32.63;19.40;;;;;;;23.57;64.40;100266.22;4933488;29;20076;-74
2022/08/15 01:22:08;;;;;;;32.15;19.38;;;;;;;23.57;63.87;100265.41;4924475;29;20059;-74
2022/08/15 01:24:52;;;;;;;32.38;19.27;;;;;;;23.59;63.38;100264.03;4934888;29;20558;-76
2022/08/15 01:27:18;;;;;;;27.67;18.15;;;;;;;23.59;62.59;100254.94;4933807;29;20035;-75
2022/08/15 01:29:44;;;;;;;30.38;18.77;;;;;;;23.57;62.23;100259.91;4917051;29;20043;-75
2022/08/15 01:32:09;;;;;;;27.40;17.80;;;;;;;23.60;62.21;100251.09;4934135;29;20044;-75
2022/08/15 01:34:35;;;;;;;28.45;17.13;;;;;;;23.66;62.07;100248.03;4935437;29;20122;-75
2022/08/15 01:37:01;;;;;;;34.45;16.58;;;;;;;23.71;61.09;100240.88;4935304;29;20423;-75
2022/08/15 01:39:37;;;;;;;24.27;15.50;;;;;;;23.77;60.99;100240.56;4934721;29;20474;-75
2022/08/15 01:42:06;;;;;;;30.25;15.30;;;;;;;23.88;60.65;100244.06;4933733;29;20133;-75
2022/08/15 01:44:38;;;;;;;21.95;13.85;;;;;;;23.92;59.64;100238.84;4918675;29;20103;-74
2022/08/15 01:47:15;;;;;;;28.20;13.60;;;;;;;23.93;58.90;100233.03;4943697;29;20032;-75
2022/08/15 01:49:55;;;;;;;22.60;11.88;;;;;;;23.95;58.20;100238.28;4934165;29;20377;-74
2022/08/15 01:52:24;;;;;;;23.85;11.52;;;;;;;23.99;57.79;100225.63;4934156;29;20036;-74
2022/08/15 01:54:50;;;;;;;21.05;11.15;;;;;;;23.99;57.87;100234.66;4935623;29;20051;-76
2022/08/15 01:57:16;;;;;;;28.70;11.23;;;;;;;24.05;57.74;100227.22;4932268;29;20039;-74
2022/08/15 01:59:42;;;;;;;19.38;10.65;;;;;;;24.06;57.00;100221.41;4934535;29;20703;-75
2022/08/15 02:02:11;;;;;;;19.90;10.52;;;;;;;24.07;57.18;100227.75;4934481;29;20032;-75
2022/08/15 02:04:39;;;;;;;20.95;10.75;;;;;;;24.08;57.29;100216.44;4932623;29;20034;-76
2022/08/15 02:07:10;;;;;;;20.63;10.18;;;;;;;24.09;57.23;100223.59;4934162;29;20475;-75
2022/08/15 02:09:35;;;;;;;21.42;10.75;;;;;;;24.11;57.16;100226.03;4917482;29;20075;-75
2022/08/15 02:12:05;;;;;;;18.45;10.05;;;;;;;24.10;57.33;100227.97;4934103;29;20042;-75
2022/08/15 02:14:31;;;;;;;26.02;10.77;;;;;;;24.07;57.54;100220.31;4934245;29;20028;-75
2022/08/15 02:16:56;;;;;;;16.52;10.13;;;;;;;24.06;57.90;100226.91;4935587;29;20024;-76
2022/08/15 02:19:22;;;;;;;29.13;9.90;;;;;;;24.08;58.11;100221.94;4941201;29;20091;-75
2022/08/15 02:21:48;;;;;;;21.83;10.00;;;;;;;24.03;58.18;100234.91;4917158;29;20038;-75
2022/08/15 02:24:20;;;;;;;31.00;10.40;;;;;;;23.95;58.76;100238.28;4929555;29;20456;-75
2022/08/15 02:26:46;;;;;;;31.10;9.43;;;;;;;23.87;59.17;100236.94;4933838;29;20034;-76
2022/08/15 02:29:12;;;;;;;32.58;10.75;;;;;;;23.88;59.02;100238.56;4932902;29;20028;-76
2022/08/15 02:31:39;;;;;;;24.45;9.68;;;;;;;23.79;59.12;100232.06;4933657;29;20055;-76
2022/08/15 02:34:04;;;;;;;29.23;10.40;;;;;;;23.77;59.33;100239.75;4931322;29;20058;-75
2022/08/15 02:36:32;;;;;;;18.38;8.77;;;;;;;23.75;59.44;100239.22;4933806;29;20036;-74
2022/08/15 02:38:58;;;;;;;22.23;9.77;;;;;;;23.78;59.42;100242.22;4933846;29;20040;-74
2022/08/15 02:41:31;;;;;;;21.02;9.70;;;;;;;23.73;58.95;100230.47;4932789;29;20063;-74
2022/08/15 02:43:59;;;;;;;23.38;9.82;;;;;;;23.61;58.93;100228.00;4933377;29;20035;-75
2022/08/15 02:46:24;;;;;;;27.10;10.65;;;;;;;23.54;59.35;100228.34;4932817;29;20028;-76
2022/08/15 02:48:50;;;;;;;23.75;9.60;;;;;;;23.50;59.62;100209.97;4933358;29;20040;-75
2022/08/15 02:51:17;;;;;;;27.40;10.20;;;;;;;23.57;59.08;100210.47;4920677;29;20510;-74
2022/08/15 02:53:47;;;;;;;20.33;9.38;;;;;;;23.53;59.28;100207.44;4932346;29;20346;-75
2022/08/15 02:56:17;;;;;;;17.90;10.45;;;;;;;23.58;60.42;100201.13;4933233;29;20032;-75
2022/08/15 02:58:43;;;;;;;28.95;10.68;;;;;;;23.58;60.23;100201.13;4932593;29;20482;-75
2022/08/15 03:01:09;;;;;;;22.15;10.93;;;;;;;23.57;60.46;100210.47;4932849;29;20110;-75
2022/08/15 03:03:39;;;;;;;24.70;11.02;;;;;;;23.59;60.35;100219.22;4933036;29;20036;-75
2022/08/15 03:06:12;;;;;;;27.48;11.73;;;;;;;23.54;60.38;100209.13;4932253;29;20098;-75
2022/08/15 03:08:39;;;;;;;25.58;11.80;;;;;;;23.47;59.48;100205.03;4933639;29;20039;-75
2022/08/15 03:11:07;;;;;;;23.90;11.35;;;;;;;23.45;60.04;100200.63;4916346;29;20511;-75
2022/08/15 03:13:33;;;;;;;22.52;11.10;;;;;;;23.50;59.59;100199.78;4932640;29;20074;-75
2022/08/15 03:15:59;;;;;;;23.95;12.10;;;;;;;23.53;59.14;100201.97;4933498;29;20028;-75
2022/08/15 03:18:29;;;;;;;22.30;11.07;;;;;;;23.55;58.84;100201.69;4932393;29;20066;-74
2022/08/15 03:20:56;;;;;;;23.15;9.95;;;;;;;23.57;58.51;100207.72;4916395;29;20526;-74
2022/08/15 03:23:25;;;;;;;21.05;10.73;;;;;;;23.58;58.71;100203.88;4932405;29;20034;-74
2022/08/15 03:25:52;;;;;;;23.05;10.00;;;;;;;23.60;58.79;100204.41;4932795;29;20451;-74
2022/08/15 03:28:20;;;;;;;25.65;11.63;;;;;;;23.55;58.58;100201.69;4931962;29;20024;-74
2022/08/15 03:30:45;;;;;;;19.92;10.20;;;;;;;23.53;58.73;100199.22;4932929;29;20023;-76
2022/08/15 03:33:11;;;;;;;18.85;10.23;;;;;;;23.53;59.13;100195.66;4932708;29;20028;-74
2022/08/15 03:35:45;;;;;;;21.95;10.75;;;;;;;23.47;58.99;100199.53;4931910;29;20517;-74
2022/08/15 03:38:11;;;;;;;31.17;11.02;;;;;;;23.40;59.21;100178.69;4918489;29;20020;-74
2022/08/15 03:40:38;;;;;;;29.45;10.90;;;;;;;23.43;59.18;100180.91;4932831;29;20023;-75
2022/08/15 03:43:08;;;;;;;23.65;10.52;;;;;;;23.41;59.18;100171.28;4931426;29;20032;-75
2022/08/15 03:45:34;;;;;;;28.15;11.45;;;;;;;23.36;59.09;100182.31;4934755;29;20558;-74
2022/08/15 03:48:01;;;;;;;31.45;10.85;;;;;;;23.34;59.00;100185.31;4932976;29;20059;-75
2022/08/15 03:50:28;;;;;;;18.23;10.70;;;;;;;23.32;59.63;100187.53;4932979;29;20032;-75
2022/08/15 03:53:00;;;;;;;24.05;10.82;;;;;;;23.32;59.57;100186.72;4933211;29;20047;-75
2022/08/15 03:55:27;;;;;;;30.20;13.35;;;;;;;23.34;59.41;100190.81;4916380;29;20031;-74
2022/08/15 03:57:53;;;;;;;24.65;12.90;;;;;;;23.35;59.25;100203.44;4932882;29;20102;-74
2022/08/15 04:00:23;;;;;;;28.92;12.88;;;;;;;23.36;59.47;100210.59;4932904;29;20491;-75
2022/08/15 04:02:48;;;;;;;19.98;11.82;;;;;;;23.29;60.41;100226.53;4916985;29;20165;-75
2022/08/15 04:05:14;;;;;;;25.10;13.27;;;;;;;23.28;60.01;100235.88;4916339;29;20481;-75
2022/08/15 04:07:40;;;;;;;27.30;13.38;;;;;;;23.08;61.32;100244.19;4914926;29;20036;-75
2022/08/15 04:10:12;;;;;;;25.02;15.02;;;;;;;22.96;62.51;100237.09;4932516;29;20024;-74
2022/08/15 04:12:40;;;;;;;23.25;12.07;;;;;;;23.00;62.36;100235.44;4932701;29;20131;-76
2022/08/15 04:15:09;;;;;;;26.05;13.52;;;;;;;22.96;63.06;100236.22;4932316;29;20020;-75
2022/08/15 04:17:34;;;;;;;27.08;13.73;;;;;;;22.90;63.54;100245.59;4932199;29;20129;-76
2022/08/15 04:20:00;;;;;;;27.38;12.27;;;;;;;22.88;64.04;100234.91;4932527;29;20045;-75
2022/08/15 04:22:35;;;;;;;25.17;12.05;;;;;;;22.86;64.00;100219.81;4932573;29;20055;-75
2022/08/15 04:25:12;;;;;;;26.98;12.55;;;;;;;22.80;64.43;100232.69;4932468;29;20039;-74
2022/08/15 04:27:39;;;;;;;26.52;11.70;;;;;;;22.74;64.72;100231.91;4936557;29;20032;-75
2022/08/15 04:30:06;;;;;;;29.55;12.18;;;;;;;22.69;65.00;100248.38;4938321;29;20077;-75
2022/08/15 04:32:31;;;;;;;25.33;11.63;;;;;;;22.62;65.12;100233.28;4935731;29;20043;-74
2022/08/15 04:35:00;;;;;;;39.85;11.07;;;;;;;22.49;65.09;100219.06;4936404;29;20060;-75
2022/08/15 04:37:27;;;;;;;29.40;11.15;;;;;;;22.47;65.18;100221.25;4937850;29;20042;-75
2022/08/15 04:39:53;;;;;;;23.20;10.35;;;;;;;22.55;65.02;100223.44;4936543;29;20058;-74
2022/08/15 04:42:19;;;;;;;17.17;9.35;;;;;;;22.58;64.58;100228.38;4919448;29;20043;-76
2022/08/15 04:44:46;;;;;;;16.85;8.88;;;;;;;22.60;64.43;100235.50;4935045;29;20076;-74
2022/08/15 04:47:11;;;;;;;24.35;8.57;;;;;;;22.57;63.74;100243.19;4935183;29;20075;-75
2022/08/15 04:49:37;;;;;;;18.98;9.85;;;;;;;22.51;63.60;100254.44;4935696;29;20028;-75
2022/08/15 04:52:10;;;;;;;23.70;9.25;;;;;;;22.33;62.89;100259.38;4937184;29;20036;-75
2022/08/15 04:54:36;;;;;;;29.67;9.63;;;;;;;22.34;64.85;100252.78;4936126;29;20066;-75
2022/08/15 04:57:02;;;;;;;46.05;11.52;;;;;;;22.24;67.07;100251.97;4936732;29;20511;-78
2022/08/15 04:59:27;;;;;;;30.25;10.35;;;;;;;22.12;69.34;100231.13;4934615;29;20669;-76
2022/08/15 05:01:53;;;;;;;29.83;11.00;;;;;;;21.88;69.84;100230.84;4936612;29;20082;-75
2022/08/15 05:04:19;;;;;;;21.23;10.73;;;;;;;21.67;71.13;100229.16;4926859;29;20046;-76
2022/08/15 05:06:44;;;;;;;17.90;10.10;;;;;;;21.49;71.76;100230.47;4945182;29;20028;-74
2022/08/15 05:09:09;;;;;;;25.55;9.75;;;;;;;21.44;71.94;100227.72;4938358;29;20023;-75
2022/08/15 05:11:35;;;;;;;26.17;9.98;;;;;;;21.44;71.91;100222.25;4937502;29;20059;-75
2022/08/15 05:14:01;;;;;;;21.17;8.80;;;;;;;21.41;70.74;100207.19;4934933;29;20027;-74
2022/08/15 05:16:27;;;;;;;23.27;8.90;;;;;;;21.47;71.57;100205.28;4939145;29;20031;-75
2022/08/15 05:18:52;;;;;;;17.45;8.02;;;;;;;21.47;70.40;100208.00;4937272;29;20028;-76
2022/08/15 05:21:17;;;;;;;16.25;8.20;;;;;;;21.55;71.42;100212.97;4936424;29;20059;-75
2022/08/15 05:23:43;;;;;;;18.00;7.97;;;;;;;21.54;70.30;100216.81;4934378;29;20035;-76
2022/08/15 05:26:09;;;;;;;16.83;7.43;;;;;;;21.56;69.53;100217.31;4918522;29;20066;-75
2022/08/15 05:28:35;;;;;;;18.55;8.13;;;;;;;21.65;70.58;100214.91;4918516;29;20039;-76
2022/08/15 05:31:03;;;;;;;13.82;7.38;;;;;;;21.66;69.12;100220.09;4935672;29;20031;-76
2022/08/15 05:33:29;;;;;;;15.18;7.28;;;;;;;21.77;69.44;100214.63;4930097;29;20031;-75
2022/08/15 05:36:00;;;;;;;11.88;6.47;;;;;;;21.79;66.44;100217.94;4917370;29;20310;-75
2022/08/15 05:38:30;;;;;;;12.00;7.13;;;;;;;21.80;65.46;100231.38;4935095;29;20376;-76
2022/08/15 05:41:01;;;;;;;17.00;6.35;;;;;;;21.80;65.18;100238.75;4934556;29;20486;-75
2022/08/15 05:44:05;;;;;;;14.18;6.40;;;;;;;21.79;65.25;100245.31;4936469;29;20103;-77
2022/08/15 05:46:39;;;;;;;17.02;5.97;;;;;;;21.78;62.82;100246.44;4895824;29;20053;-75
2022/08/15 05:49:24;;;;;;;13.23;6.10;;;;;;;21.81;62.68;100257.66;4926968;29;20511;-76
2022/08/15 05:52:04;;;;;;;21.77;6.05;;;;;;;21.82;61.60;100258.47;4924218;29;20035;-75
2022/08/15 05:54:48;;;;;;;17.95;5.70;;;;;;;21.84;61.57;100262.59;4938134;29;20035;-74
2022/08/15 05:57:21;;;;;;;16.83;5.60;;;;;;;21.85;61.63;100261.50;4941990;29;20042;-74
2022/08/15 05:59:50;;;;;;;19.27;5.90;;;;;;;21.87;61.47;100255.75;4926891;29;20483;-74
2022/08/15 06:02:28;;;;;;;16.42;6.13;;;;;;;21.90;61.14;100260.69;4934000;29;20027;-74
2022/08/15 06:05:00;;;;;;;15.05;6.10;;;;;;;21.94;61.29;100242.63;4934607;29;20042;-75
2022/08/15 06:07:27;;;;;;;21.25;6.00;;;;;;;21.91;60.24;100249.47;4922054;29;20044;-74
2022/08/15 06:09:59;;;;;;;12.65;6.55;;;;;;;22.00;61.04;100248.91;4935002;29;20349;-74
2022/08/15 06:12:30;;;;;;;19.50;6.47;;;;;;;22.16;61.60;100241.53;4931434;29;20509;-74
2022/08/15 06:15:03;;;;;;;24.67;6.28;;;;;;;22.24;60.92;100238.28;4916808;29;20510;-75
2022/08/15 06:17:41;;;;;;;21.70;6.45;;;;;;;22.23;59.20;100231.16;4920926;29;20039;-75
2022/08/15 06:20:11;;;;;;;15.75;6.80;;;;;;;22.30;58.97;100227.03;4935346;29;20067;-74
2022/08/15 06:22:45;;;;;;;19.38;6.95;;;;;;;22.43;58.94;100222.91;4921517;29;20039;-74
2022/08/15 06:25:43;;;;;;;16.45;7.32;;;;;;;22.45;59.41;100212.47;4936736;29;20035;-75
2022/08/15 06:28:15;;;;;;;20.77;7.10;;;;;;;22.31;58.96;100205.94;4940028;29;20372;-75
2022/08/15 06:30:52;;;;;;;25.50;6.13;;;;;;;22.24;59.12;100214.41;4939278;29;20028;-75
2022/08/15 06:33:40;;;;;;;17.95;6.63;;;;;;;22.25;59.62;100212.50;4938972;29;20035;-73
2022/08/15 06:36:17;;;;;;;;;;;;;;;22.32;60.29;100216.59;4938478;29;20043;-75
2022/08/15 06:38:56;;;;;;;20.90;6.93;;;;;;;22.23;59.30;100221.00;4920580;29;19929;-73
2022/08/15 06:41:42;;;;;;;18.25;7.07;;;;;;;22.31;59.81;100216.91;4916798;29;20406;-73
2022/08/15 06:44:10;;;;;;;18.05;6.43;;;;;;;22.42;60.12;100223.19;4934881;29;20078;-73
2022/08/15 06:46:35;;;;;;;19.80;7.35;;;;;;;22.40;59.81;100226.19;4935417;29;20422;-74
2022/08/15 06:49:03;;;;;;;23.67;7.53;;;;;;;22.40;60.17;100215.22;4935099;29;20070;-74
2022/08/15 06:51:31;;;;;;;16.27;7.40;;;;;;;22.36;60.32;100238.81;4935284;29;20028;-72
2022/08/15 06:53:58;;;;;;;20.85;7.75;;;;;;;22.41;60.79;100218.78;4916994;29;20078;-75
2022/08/15 06:56:34;;;;;;;18.23;7.20;;;;;;;22.42;60.38;100223.19;4934526;29;20399;-74
2022/08/15 06:59:23;;;;;;;25.75;7.93;;;;;;;22.46;60.63;100235.22;4934033;29;20267;-74
2022/08/15 07:01:49;;;;;;;21.27;7.93;;;;;;;22.48;60.77;100233.84;4917646;29;20078;-79
2022/08/15 07:04:20;;;;;;;19.48;7.60;;;;;;;22.43;60.78;100233.03;4933903;29;20039;-73
2022/08/15 07:06:54;;;;;;;21.23;8.02;;;;;;;22.32;61.43;100240.47;4918731;29;20107;-73
2022/08/15 07:09:43;;;;;;;16.23;7.78;;;;;;;22.12;62.21;100242.09;4917795;29;20232;-73
2022/08/15 07:12:20;;;;;;;18.50;8.18;;;;;;;21.87;64.15;100245.59;4941966;29;20094;-73
2022/08/15 07:14:52;;;;;;;;;;;;;;;21.85;64.50;100246.97;4937536;29;20095;-73
2022/08/15 07:17:29;;;;;;;21.70;8.98;;;;;;;21.80;65.09;100252.44;4934803;29;19923;-73
2022/08/15 07:19:55;;;;;;;20.80;9.13;;;;;;;21.53;66.13;100239.78;4938917;29;20023;-73
2022/08/15 07:22:20;;;;;;;24.25;9.38;;;;;;;21.43;67.14;100253.44;4939517;29;20102;-73
2022/08/15 07:24:52;;;;;;;19.45;9.60;;;;;;;21.38;67.97;100258.88;4935463;29;20479;-74
2022/08/15 07:27:26;;;;;;;22.40;10.27;;;;;;;21.27;68.72;100253.38;4935558;29;20031;-74
2022/08/15 07:30:20;;;;;;;24.48;10.55;;;;;;;21.35;69.17;100242.97;4934171;29;20024;-74
2022/08/15 07:32:52;;;;;;;17.83;9.48;;;;;;;21.40;68.85;100246.56;4926766;29;20487;-74
2022/08/15 07:35:26;;;;;;;20.08;9.50;;;;;;;21.45;68.62;100249.34;4934151;29;20056;-73
2022/08/15 07:38:00;;;;;;;21.02;9.23;;;;;;;21.55;69.22;100247.75;4900790;29;20122;-74
2022/08/15 07:40:30;;;;;;;16.42;9.10;;;;;;;21.63;69.66;100255.41;4933690;29;20031;-74
2022/08/15 07:42:57;;;;;;;16.77;9.55;;;;;;;21.51;70.52;100252.91;4935288;29;20034;-74
2022/08/15 07:45:35;;;;;;;18.35;10.40;;;;;;;21.24;71.43;100258.53;4936971;29;20040;-75
2022/08/15 07:48:04;;;;;;;19.83;9.35;;;;;;;21.10;72.77;100241.78;4933862;29;20118;-75
2022/08/15 07:50:37;;;;;;;17.83;9.38;;;;;;;21.04;72.64;100235.47;4916972;29;20028;-74
2022/08/15 07:53:16;;;;;;;24.20;10.10;;;;;;;21.13;73.38;100241.25;4933475;29;20028;-73
2022/08/15 07:56:00;;;;;;;19.30;9.15;;;;;;;21.10;72.99;100236.31;4918232;29;20035;-74
2022/08/15 07:58:25;;;;;;;27.80;11.15;;;;;;;21.21;73.66;100237.19;4933682;29;20488;-74
2022/08/15 08:00:53;;;;;;;16.83;10.20;;;;;;;21.24;73.86;100236.63;4934857;29;20035;-74
2022/08/15 08:03:20;;;;;;;;;;;;;;;21.35;74.26;100232.03;4917257;29;20031;-75
2022/08/15 08:06:07;;;;;;;15.35;9.07;;;;;;;21.62;74.09;100226.41;4916452;29;20381;-74
2022/08/15 08:09:01;;;;;;;13.98;9.10;;;;;;;21.75;73.23;100214.06;4916439;29;20086;-75
2022/08/15 08:12:07;;;;;;;19.13;9.55;;;;;;;22.11;73.76;100229.47;4916599;29;20036;-75
2022/08/15 08:14:54;;;;;;;11.73;8.77;;;;;;;22.24;71.97;100235.53;4933328;29;20475;-75
2022/08/15 08:17:36;;;;;;;15.35;9.20;;;;;;;22.18;70.53;100228.38;4916499;29;20040;-74
2022/08/15 08:20:22;;;;;;;13.77;9.18;;;;;;;22.48;69.95;100233.84;4916724;29;20024;-75
2022/08/15 08:23:01;;;;;;;19.02;9.10;;;;;;;22.66;69.31;100234.41;4916475;29;20039;-74
2022/08/15 08:25:42;;;;;;;12.70;7.90;;;;;;;22.65;67.69;100238.25;4916684;29;20023;-79
2022/08/15 08:28:46;;;;;;;17.92;9.07;;;;;;;22.46;68.26;100238.81;4933534;29;20034;-73
2022/08/15 08:31:31;;;;;;;17.35;8.68;;;;;;;22.34;68.58;100243.75;4890604;29;20050;-74
2022/08/15 08:34:18;;;;;;;18.48;8.70;;;;;;;22.18;69.07;100240.16;4917933;29;20107;-75
2022/08/15 08:36:52;;;;;;;27.83;10.80;;;;;;;21.90;70.91;100257.94;4935496;29;20027;-75
2022/08/15 08:39:33;;;;;;;21.67;10.25;;;;;;;21.62;72.50;100249.13;4933191;29;20047;-74
2022/08/15 08:42:15;;;;;;;30.65;9.95;;;;;;;21.72;73.43;100256.53;4935543;29;20035;-74
2022/08/15 08:44:40;;;;;;;28.33;11.10;;;;;;;21.63;74.20;100256.25;4934428;29;20042;-74
2022/08/15 08:47:16;;;;;;;29.83;12.48;;;;;;;21.55;75.36;100258.69;4934903;29;20383;-74
2022/08/15 08:49:47;;;;;;;30.75;12.82;;;;;;;21.51;76.14;100255.66;4932381;29;20134;-73
2022/08/15 08:52:35;;;;;;;21.95;12.27;;;;;;;21.51;76.71;100263.84;4932758;29;20027;-73
2022/08/15 08:55:05;;;;;;;26.02;12.27;;;;;;;21.58;76.60;100269.91;4933695;29;20090;-73
2022/08/15 08:57:46;;;;;;;36.20;14.63;;;;;;;21.43;77.57;100276.19;4935905;29;20055;-74
2022/08/15 09:00:17;;;;;;;29.95;14.85;;;;;;;21.39;78.23;100271.50;4934986;29;20063;-75
2022/08/15 09:02:48;;;;;;;32.35;14.65;;;;;;;21.55;77.80;100270.47;4932274;29;20430;-74
2022/08/15 09:05:32;;;;;;;25.17;14.75;;;;;;;21.76;77.45;100276.00;4933334;29;20032;-73
2022/08/15 09:08:02;;;;;;;39.47;17.77;;;;;;;21.74;76.82;100278.19;4901391;29;20046;-73
2022/08/15 09:10:32;;;;;;;31.58;18.02;;;;;;;21.64;77.39;100279.81;4934875;29;20086;-73
2022/08/15 09:15:43;;;;;;;34.20;19.85;;;;;;;21.65;77.19;100277.88;4922503;29;20038;-74
2022/08/15 09:18:18;;;;;;;36.88;19.25;;;;;;;21.78;77.33;100282.84;4935379;29;20028;-73
2022/08/15 09:20:43;;;;;;;33.63;18.33;;;;;;;21.99;76.90;100280.16;4936642;29;20087;-74
2022/08/15 09:23:11;;;;;;;30.02;18.63;;;;;;;22.17;76.15;100276.06;4936459;29;20023;-75
2022/08/15 09:25:48;;;;;;;35.50;20.67;;;;;;;22.23;75.06;100283.22;4922077;29;20035;-75
2022/08/15 09:28:23;;;;;;;45.25;20.63;;;;;;;22.35;75.09;100281.03;4937440;29;20035;-73
2022/08/15 09:30:50;;;;;;;32.65;20.77;;;;;;;22.58;74.46;100288.69;4940085;29;20395;-74
2022/08/15 09:34:08;;;;;;;38.22;20.80;;;;;;;23.37;72.09;100283.59;4936424;29;20043;-75
2022/08/15 09:36:50;;;;;;;34.00;21.90;;;;;;;24.15;68.07;100287.63;4935948;29;20067;-74
2022/08/15 09:39:50;;;;;;;29.13;18.25;;;;;;;24.71;66.66;100295.41;4945408;29;20028;-75
2022/08/15 09:42:19;;;;;;;43.22;22.23;;;;;;;24.52;66.18;100291.75;4946025;29;20486;-74
2022/08/15 09:44:57;;;;;;;35.22;21.83;;;;;;;24.41;66.93;100290.13;4940950;29;20063;-75
2022/08/15 09:47:39;;;;;;;41.22;24.30;;;;;;;24.49;66.89;100297.84;4944516;29;20044;-74
2022/08/15 09:50:34;;;;;;;40.28;24.88;;;;;;;24.23;66.49;100294.44;4947000;29;20422;-75
2022/08/15 09:53:12;;;;;;;39.60;24.23;;;;;;;24.36;66.28;100298.47;4913626;29;20067;-74
2022/08/15 09:55:46;;;;;;;41.47;22.30;;;;;;;24.89;64.10;100299.38;4941513;29;20436;-75
2022/08/15 09:58:26;;;;;;;34.38;21.15;;;;;;;25.62;61.85;100292.78;4928043;29;20455;-75
2022/08/15 10:00:52;;;;;;;40.08;20.10;;;;;;;25.99;59.97;100299.47;4942508;29;20460;-75
2022/08/15 10:03:44;;;;;;;36.83;20.23;;;;;;;26.04;60.04;100299.38;4941596;29;20023;-73
2022/08/15 10:06:57;;;;;;;41.63;22.50;;;;;;;25.84;60.10;100303.25;4937298;29;20039;-75
2022/08/15 10:09:28;;;;;;;32.08;20.27;;;;;;;25.61;61.70;100299.38;4923145;29;20046;-75
2022/08/15 10:11:56;;;;;;;39.42;24.15;;;;;;;25.05;63.16;100305.53;4938285;29;20106;-75
2022/08/15 10:14:21;;;;;;;39.42;24.55;;;;;;;24.56;64.00;100303.00;4941417;29;20028;-74
2022/08/15 10:16:52;;;;;;;49.90;25.15;;;;;;;24.50;64.76;100307.72;4941752;29;20034;-74
2022/08/15 10:19:38;;;;;;;48.22;26.55;;;;;;;24.27;66.09;100309.22;4925829;29;20028;-74
2022/08/15 10:22:32;;;;;;;39.83;22.98;;;;;;;24.44;65.77;100311.59;4938456;29;20043;-74
2022/08/15 10:25:17;;;;;;;48.80;22.17;;;;;;;24.74;65.01;100305.03;4884192;29;20052;-74
2022/08/15 10:28:10;;;;;;;36.50;22.00;;;;;;;24.79;64.78;100306.91;4936704;29;20036;-76
2022/08/15 10:30:38;;;;;;;42.30;21.92;;;;;;;24.69;64.12;100307.81;4938411;29;20054;-74
2022/08/15 10:33:27;;;;;;;49.47;22.33;;;;;;;24.62;64.66;100302.66;4937493;29;20039;-74
2022/08/15 10:35:55;;;;;;;35.53;19.58;;;;;;;24.79;63.65;100304.16;4936742;29;20515;-75
2022/08/15 10:38:25;;;;;;;49.33;23.45;;;;;;;24.50;63.47;100300.28;4939003;29;20091;-74
2022/08/15 10:40:59;;;;;;;37.55;18.90;;;;;;;24.97;62.77;100309.75;4935709;29;20032;-74
2022/08/15 10:43:41;;;;;;;42.08;20.77;;;;;;;25.21;61.16;100306.22;4920610;29;20032;-75
2022/08/15 10:46:24;;;;;;;41.97;20.83;;;;;;;25.15;61.59;100308.22;4920680;29;20027;-73
2022/08/15 10:48:57;;;;;;;37.50;21.98;;;;;;;25.36;60.95;100313.50;4938090;29;20127;-74
2022/08/15 10:51:53;;;;;;;34.95;20.85;;;;;;;25.52;61.57;100317.69;4938479;29;20032;-73
2022/08/15 10:54:24;;;;;;;44.93;21.30;;;;;;;25.95;60.07;100312.19;4884856;29;20133;-74
2022/08/15 10:56:54;;;;;;;41.92;19.02;;;;;;;26.36;58.84;100311.59;4935210;29;20287;-74
2022/08/15 10:59:25;;;;;;;34.72;20.20;;;;;;;26.56;56.59;100309.63;4921990;29;20430;-74
2022/08/15 11:02:03;;;;;;;41.25;16.58;;;;;;;27.06;56.06;100307.88;4919792;29;20066;-76
2022/08/15 11:04:35;;;;;;;29.60;16.33;;;;;;;27.16;54.69;100306.88;4919263;29;20042;-73
2022/08/15 11:07:03;;;;;;;33.22;17.15;;;;;;;27.12;53.82;100308.59;4936592;29;20436;-74
2022/08/15 11:09:28;;;;;;;32.20;14.30;;;;;;;27.00;54.73;100311.06;4920274;29;20046;-74
2022/08/15 11:12:05;;;;;;;32.15;16.83;;;;;;;27.01;53.69;100299.69;4920559;29;20531;-75
2022/08/15 11:14:38;;;;;;;32.37;16.63;;;;;;;26.76;53.61;100302.94;4937129;29;20023;-74
2022/08/15 11:17:05;;;;;;;44.92;17.50;;;;;;;26.66;53.43;100303.94;4935857;29;20314;-75
2022/08/15 11:19:38;;;;;;;34.92;15.23;;;;;;;26.76;54.52;100309.28;4917604;29;20044;-74
2022/08/15 11:22:07;;;;;;;34.17;17.00;;;;;;;26.73;54.21;100307.13;4936216;29;20040;-74
2022/08/15 11:24:39;;;;;;;35.60;17.15;;;;;;;26.63;54.76;100310.06;4941712;29;20028;-74
2022/08/15 11:27:14;;;;;;;47.45;20.30;;;;;;;26.16;54.97;100320.16;4937485;29;20024;-75
2022/08/15 11:29:39;;;;;;;50.78;20.02;;;;;;;25.77;56.66;100313.78;4938094;29;20031;-74
2022/08/15 11:32:06;;;;;;;37.90;17.48;;;;;;;25.66;57.85;100316.97;4936256;29;20431;-75
2022/08/15 11:34:40;;;;;;;36.55;17.85;;;;;;;25.40;57.58;100314.53;4938223;29;20395;-75
2022/08/15 11:37:16;;;;;;;43.35;19.85;;;;;;;24.85;58.31;100327.75;4937265;29;20103;-74